createdAt,value
2017-03-12T00:00:45.950Z,77.97
2017-03-12T00:01:45.581Z,78.07
2017-03-12T00:02:45.636Z,78.16
2017-03-12T00:03:45.658Z,78.07
2017-03-12T00:04:45.945Z,77.78
2017-03-12T00:05:45.728Z,78.16
2017-03-12T00:06:45.755Z,77.97
2017-03-12T00:07:45.773Z,77.78
2017-03-12T00:08:45.813Z,77.88
2017-03-12T00:09:45.846Z,78.07
2017-03-12T00:10:45.882Z,77.69
2017-03-12T00:11:46.296Z,78.35
2017-03-12T00:12:46.336Z,78.16
2017-03-12T00:13:45.973Z,78.45
2017-03-12T00:14:46.011Z,78.35
2017-03-12T00:15:46.016Z,78.45
2017-03-12T00:16:46.053Z,78.26
2017-03-12T00:17:46.079Z,78.07
2017-03-12T00:18:46.109Z,78.45
2017-03-12T00:19:46.138Z,78.26
2017-03-12T00:20:46.189Z,78.26
2017-03-12T00:21:46.596Z,78.54
2017-03-12T00:22:46.636Z,78.35
2017-03-12T00:23:46.265Z,78.35
2017-03-12T00:24:46.302Z,78.45
2017-03-12T00:25:46.746Z,78.54
2017-03-12T00:26:46.360Z,78.35
2017-03-12T00:27:46.793Z,78.54
2017-03-12T00:28:46.425Z,78.54
2017-03-12T00:29:46.841Z,78.64
2017-03-12T00:30:46.498Z,78.54
2017-03-12T00:31:46.507Z,78.35
2017-03-12T00:32:46.552Z,78.54
2017-03-12T00:33:46.587Z,78.64
2017-03-12T00:34:46.618Z,78.54
2017-03-12T00:35:46.648Z,78.64
2017-03-12T00:36:46.662Z,78.83
2017-03-12T00:37:46.926Z,78.83
2017-03-12T00:38:46.732Z,78.73
2017-03-12T00:39:46.767Z,78.45
2017-03-12T00:40:47.181Z,78.45
2017-03-12T00:41:46.816Z,78.45
2017-03-12T00:42:46.848Z,78.41
2017-03-12T00:43:46.879Z,78.31
2017-03-12T00:44:46.917Z,78.54
2017-03-12T00:45:46.955Z,78.54
2017-03-12T00:46:46.972Z,78.31
2017-03-12T00:47:46.998Z,78.5
2017-03-12T00:48:47.436Z,78.31
2017-03-12T00:49:47.062Z,78.41
2017-03-12T00:50:47.094Z,78.69
2017-03-12T00:51:47.126Z,78.5
2017-03-12T00:52:47.159Z,78.5
2017-03-12T00:53:47.184Z,78.69
2017-03-12T00:54:47.221Z,78.5
2017-03-12T00:55:47.247Z,78.41
2017-03-12T00:56:47.670Z,78.13
2017-03-12T00:57:47.318Z,78.5
2017-03-12T00:58:47.375Z,78.69
2017-03-12T00:59:47.760Z,78.69
2017-03-12T01:00:47.791Z,78.5
2017-03-12T01:01:47.429Z,78.31
2017-03-12T01:02:47.855Z,78.69
2017-03-12T01:03:47.493Z,78.5
2017-03-12T01:04:47.523Z,78.69
2017-03-12T01:05:47.555Z,78.69
2017-03-12T01:06:47.972Z,78.5
2017-03-12T01:07:47.610Z,78.69
2017-03-12T01:08:48.039Z,78.59
2017-03-12T01:09:47.669Z,78.5
2017-03-12T01:10:47.714Z,78.59
2017-03-12T01:11:48.128Z,78.5
2017-03-12T01:12:47.766Z,78.59
2017-03-12T01:13:47.795Z,78.79
2017-03-12T01:14:47.857Z,78.5
2017-03-12T01:15:47.858Z,79.07
2017-03-12T01:16:47.886Z,78.59
2017-03-12T01:17:47.948Z,78.41
2017-03-12T01:18:48.340Z,78.88
2017-03-12T01:19:48.368Z,78.59
2017-03-12T01:20:48.403Z,78.41
2017-03-12T01:21:48.033Z,78.79
2017-03-12T01:22:48.461Z,79.07
2017-03-12T01:23:48.099Z,78.41
2017-03-12T01:24:48.518Z,79.07
2017-03-12T01:25:48.553Z,78.98
2017-03-12T01:26:48.197Z,79.26
2017-03-12T01:27:48.612Z,79.17
2017-03-12T01:28:48.643Z,79.07
2017-03-12T01:29:48.686Z,79.26
2017-03-12T01:30:48.312Z,78.69
2017-03-12T01:31:48.738Z,79.17
2017-03-12T01:32:48.798Z,78.79
2017-03-12T01:33:48.403Z,79.36
2017-03-12T01:34:48.851Z,79.07
2017-03-12T01:35:48.872Z,79.26
2017-03-12T01:36:48.486Z,78.98
2017-03-12T01:37:48.918Z,79.17
2017-03-12T01:38:48.557Z,79.17
2017-03-12T01:39:48.584Z,79.17
2017-03-12T01:40:49.000Z,79.26
2017-03-12T01:41:48.648Z,79.07
2017-03-12T01:42:48.675Z,79.07
2017-03-12T01:43:48.721Z,78.98
2017-03-12T01:44:49.141Z,78.79
2017-03-12T01:45:48.775Z,78.88
2017-03-12T01:46:48.802Z,79.64
2017-03-12T01:47:49.211Z,79.74
2017-03-12T01:48:48.862Z,79.64
2017-03-12T01:49:48.886Z,79.55
2017-03-12T01:50:48.911Z,79.74
2017-03-12T01:51:48.946Z,79.55
2017-03-12T01:52:48.980Z,79.93
2017-03-12T01:53:49.009Z,79.64
2017-03-12T01:54:49.039Z,80.3
2017-03-12T01:55:49.069Z,79.64
2017-03-12T01:56:49.103Z,79.83
2017-03-12T01:57:49.536Z,79.74
2017-03-12T01:58:49.175Z,79.74
2017-03-12T01:59:49.188Z,79.74
2017-03-12T02:00:49.612Z,80.02
2017-03-12T02:01:49.252Z,79.83
2017-03-12T02:02:49.274Z,79.93
2017-03-12T02:03:49.707Z,80.11
2017-03-12T02:04:49.732Z,79.93
2017-03-12T02:05:49.762Z,80.3
2017-03-12T02:06:49.792Z,80.21
2017-03-12T02:07:49.825Z,80.4
2017-03-12T02:08:49.480Z,80.3
2017-03-12T02:09:49.887Z,80.3
2017-03-12T02:10:49.525Z,79.93
2017-03-12T02:11:49.557Z,79.93
2017-03-12T02:12:49.583Z,80.02
2017-03-12T02:13:49.623Z,80.3
2017-03-12T02:14:49.647Z,80.11
2017-03-12T02:15:49.681Z,79.83
2017-03-12T02:16:49.711Z,79.74
2017-03-12T02:17:50.124Z,79.64
2017-03-12T02:18:49.771Z,79.93
2017-03-12T02:19:50.193Z,79.55
2017-03-12T02:20:50.213Z,80.02
2017-03-12T02:21:49.854Z,80.11
2017-03-12T02:22:49.890Z,79.93
2017-03-12T02:23:50.315Z,79.64
2017-03-12T02:24:50.340Z,79.5
2017-03-12T02:25:49.973Z,80.21
2017-03-12T02:26:50.001Z,80.11
2017-03-12T02:27:50.424Z,79.79
2017-03-12T02:28:50.066Z,79.74
2017-03-12T02:29:50.092Z,80.11
2017-03-12T02:30:50.124Z,79.93
2017-03-12T02:31:50.153Z,80.3
2017-03-12T02:32:50.178Z,80.11
2017-03-12T02:33:50.213Z,80.02
2017-03-12T02:34:50.249Z,80.49
2017-03-12T02:35:50.661Z,80.49
2017-03-12T02:36:50.543Z,80.11
2017-03-12T02:37:50.731Z,80.49
2017-03-12T02:38:50.752Z,80.74
2017-03-12T02:39:50.403Z,80.83
2017-03-12T02:40:50.850Z,80.93
2017-03-12T02:41:50.454Z,80.58
2017-03-12T02:42:50.880Z,80.87
2017-03-12T02:43:50.514Z,81.59
2017-03-12T02:44:50.543Z,81.15
2017-03-12T02:45:50.573Z,80.83
2017-03-12T02:46:50.996Z,81.21
2017-03-12T02:47:51.020Z,81.21
2017-03-12T02:48:50.665Z,80.55
2017-03-12T02:49:50.714Z,80.45
2017-03-12T02:50:50.722Z,80.74
2017-03-12T02:51:50.754Z,80.77
2017-03-12T02:52:50.784Z,80.55
2017-03-12T02:53:50.811Z,80.83
2017-03-12T02:54:50.855Z,80.83
2017-03-12T02:55:51.261Z,81.21
2017-03-12T02:56:50.916Z,80.45
2017-03-12T02:57:51.331Z,80.74
2017-03-12T02:58:51.360Z,81.3
2017-03-12T02:59:50.992Z,80.55
2017-03-12T03:00:51.431Z,80.83
2017-03-12T03:01:51.453Z,80.74
2017-03-12T03:02:51.475Z,81.12
2017-03-12T03:03:51.113Z,81.02
2017-03-12T03:04:51.137Z,81.49
2017-03-12T03:05:51.168Z,81.4
2017-03-12T03:06:51.203Z,80.93
2017-03-12T03:07:51.625Z,80.93
2017-03-12T03:08:51.262Z,81.12
2017-03-12T03:09:51.289Z,81.12
2017-03-12T03:10:51.716Z,81.21
2017-03-12T03:11:51.361Z,81.12
2017-03-12T03:12:51.382Z,81.12
2017-03-12T03:13:51.417Z,81.12
2017-03-12T03:14:51.440Z,81.21
2017-03-12T03:15:51.470Z,81.12
2017-03-12T03:16:51.530Z,81.12
2017-03-12T03:17:51.532Z,81.3
2017-03-12T03:18:51.578Z,81.02
2017-03-12T03:19:51.604Z,80.93
2017-03-12T03:20:51.619Z,81.3
2017-03-12T03:21:52.041Z,81.12
2017-03-12T03:22:52.109Z,80.93
2017-03-12T03:23:51.707Z,81.21
2017-03-12T03:24:51.741Z,81.3
2017-03-12T03:25:51.770Z,81.21
2017-03-12T03:26:52.192Z,81.21
2017-03-12T03:27:51.828Z,81.21
2017-03-12T03:28:51.855Z,81.12
2017-03-12T03:29:51.901Z,80.74
2017-03-12T03:30:51.930Z,81.12
2017-03-12T03:31:52.341Z,81.21
2017-03-12T03:32:52.002Z,81.21
2017-03-12T03:33:52.002Z,81.12
2017-03-12T03:34:52.040Z,81.21
2017-03-12T03:35:52.081Z,81.3
2017-03-12T03:36:52.096Z,80.93
2017-03-12T03:37:52.122Z,81.02
2017-03-12T03:38:52.552Z,80.93
2017-03-12T03:39:52.588Z,81.12
2017-03-12T03:40:52.609Z,81.21
2017-03-12T03:41:52.251Z,80.83
2017-03-12T03:42:52.279Z,80.83
2017-03-12T03:43:52.699Z,81.02
2017-03-12T03:44:52.729Z,81.21
2017-03-12T03:45:52.373Z,81.12
2017-03-12T03:46:52.406Z,80.64
2017-03-12T03:47:52.429Z,80.64
2017-03-12T03:48:52.867Z,80.74
2017-03-12T03:49:52.488Z,80.74
2017-03-12T03:50:52.511Z,80.74
2017-03-12T03:51:52.544Z,80.45
2017-03-12T03:52:52.568Z,80.45
2017-03-12T03:53:53.025Z,80.55
2017-03-12T03:54:52.640Z,80.64
2017-03-12T03:55:53.052Z,80.55
2017-03-12T03:56:52.695Z,80.74
2017-03-12T03:57:52.723Z,80.45
2017-03-12T03:58:52.761Z,80.55
2017-03-12T03:59:52.783Z,80.74
2017-03-12T04:00:52.819Z,80.74
2017-03-12T04:01:52.844Z,80.74
2017-03-12T04:02:52.881Z,80.83
2017-03-12T04:03:52.914Z,80.64
2017-03-12T04:04:53.334Z,80.93
2017-03-12T04:05:53.352Z,80.83
2017-03-12T04:06:53.012Z,80.74
2017-03-12T04:07:53.021Z,80.64
2017-03-12T04:08:53.056Z,80.74
2017-03-12T04:09:53.112Z,80.55
2017-03-12T04:10:53.109Z,80.74
2017-03-12T04:11:53.536Z,80.55
2017-03-12T04:12:53.172Z,80.83
2017-03-12T04:13:53.200Z,80.83
2017-03-12T04:14:53.241Z,80.45
2017-03-12T04:15:53.264Z,80.58
2017-03-12T04:16:53.291Z,80.74
2017-03-12T04:17:53.719Z,80.83
2017-03-12T04:18:53.357Z,80.36
2017-03-12T04:19:53.791Z,80.64
2017-03-12T04:20:53.410Z,80.55
2017-03-12T04:21:53.450Z,80.36
2017-03-12T04:22:53.474Z,80.45
2017-03-12T04:23:53.906Z,80.55
2017-03-12T04:24:53.924Z,80.45
2017-03-12T04:25:53.954Z,80.64
2017-03-12T04:26:53.978Z,80.55
2017-03-12T04:27:54.013Z,81.02
2017-03-12T04:28:53.652Z,80.74
2017-03-12T04:29:54.102Z,80.83
2017-03-12T04:30:53.719Z,80.93
2017-03-12T04:31:53.746Z,80.74
2017-03-12T04:32:53.765Z,80.83
2017-03-12T04:33:53.885Z,80.83
2017-03-12T04:34:53.830Z,81.02
2017-03-12T04:35:54.254Z,81.02
2017-03-12T04:36:54.282Z,81.12
2017-03-12T04:37:53.916Z,81.3
2017-03-12T04:38:53.948Z,81.3
2017-03-12T04:39:53.988Z,81.4
2017-03-12T04:40:54.013Z,81.4
2017-03-12T04:41:54.037Z,81.68
2017-03-12T04:42:54.459Z,81.59
2017-03-12T04:43:54.494Z,81.49
2017-03-12T04:44:54.126Z,81.59
2017-03-12T04:45:54.553Z,81.77
2017-03-12T04:46:54.196Z,81.59
2017-03-12T04:47:54.615Z,81.49
2017-03-12T04:48:54.651Z,81.4
2017-03-12T04:49:54.674Z,81.49
2017-03-12T04:50:54.707Z,81.87
2017-03-12T04:51:54.724Z,81.49
2017-03-12T04:52:54.771Z,82.34
2017-03-12T04:53:54.792Z,82.44
2017-03-12T04:54:54.815Z,82.34
2017-03-12T04:55:54.455Z,82.25
2017-03-12T04:56:54.484Z,82.34
2017-03-12T04:57:54.516Z,82.06
2017-03-12T04:58:54.541Z,81.77
2017-03-12T04:59:54.589Z,81.49
2017-03-12T05:00:54.604Z,81.77
2017-03-12T05:01:55.036Z,82.44
2017-03-12T05:02:54.667Z,82.15
2017-03-12T05:03:54.693Z,81.96
2017-03-12T05:04:54.720Z,82.15
2017-03-12T05:05:54.755Z,82.06
2017-03-12T05:06:55.176Z,82.15
2017-03-12T05:07:54.818Z,82.25
2017-03-12T05:08:54.854Z,82.25
2017-03-12T05:09:54.877Z,82.06
2017-03-12T05:10:54.899Z,81.96
2017-03-12T05:11:54.941Z,82.15
2017-03-12T05:12:54.963Z,81.96
2017-03-12T05:13:54.992Z,82.21
2017-03-12T05:14:55.029Z,81.83
2017-03-12T05:15:55.054Z,82.78
2017-03-12T05:16:55.108Z,82.59
2017-03-12T05:17:55.106Z,82.4
2017-03-12T05:18:55.528Z,82.4
2017-03-12T05:19:55.170Z,82.97
2017-03-12T05:20:55.190Z,82.78
2017-03-12T05:21:55.240Z,82.87
2017-03-12T05:22:55.262Z,82.68
2017-03-12T05:23:55.312Z,83.25
2017-03-12T05:24:55.705Z,83.15
2017-03-12T05:25:55.347Z,83.06
2017-03-12T05:26:55.768Z,83.34
2017-03-12T05:27:55.403Z,83.34
2017-03-12T05:28:55.450Z,83.63
2017-03-12T05:29:55.469Z,83.34
2017-03-12T05:30:55.500Z,83.53
2017-03-12T05:31:55.534Z,83.34
2017-03-12T05:32:55.568Z,83.53
2017-03-12T05:33:55.589Z,83.53
2017-03-12T05:34:56.007Z,83.44
2017-03-12T05:35:55.644Z,83.34
2017-03-12T05:36:55.666Z,83.53
2017-03-12T05:37:55.700Z,83.44
2017-03-12T05:38:56.137Z,83.44
2017-03-12T05:39:55.758Z,83.63
2017-03-12T05:40:56.175Z,83.44
2017-03-12T05:41:56.215Z,83.15
2017-03-12T05:42:55.857Z,83.39
2017-03-12T05:43:55.895Z,83.39
2017-03-12T05:44:55.896Z,83.39
2017-03-12T05:45:55.954Z,83.86
2017-03-12T05:46:55.978Z,83.48
2017-03-12T05:47:55.987Z,83.39
2017-03-12T05:48:56.051Z,83.39
2017-03-12T05:49:56.447Z,83.29
2017-03-12T05:50:56.471Z,83.1
2017-03-12T05:51:56.123Z,83.2
2017-03-12T05:52:56.139Z,83.39
2017-03-12T05:53:56.583Z,83.39
2017-03-12T05:54:56.206Z,83.01
2017-03-12T05:55:56.247Z,83.39
2017-03-12T05:56:56.280Z,83.39
2017-03-12T05:57:56.686Z,83.48
2017-03-12T05:58:56.326Z,83.39
2017-03-12T05:59:56.759Z,83.58
2017-03-12T06:00:56.391Z,83.58
2017-03-12T06:01:56.416Z,83.29
2017-03-12T06:02:56.453Z,83.39
2017-03-12T06:03:56.861Z,83.67
2017-03-12T06:04:56.507Z,83.48
2017-03-12T06:05:56.531Z,83.58
2017-03-12T06:06:56.563Z,83.39
2017-03-12T06:07:56.598Z,83.48
2017-03-12T06:08:56.623Z,83.2
2017-03-12T06:09:57.063Z,83.29
2017-03-12T06:10:56.677Z,82.72
2017-03-12T06:11:56.714Z,82.72
2017-03-12T06:12:56.740Z,82.91
2017-03-12T06:13:57.168Z,83.2
2017-03-12T06:14:56.820Z,82.91
2017-03-12T06:15:56.833Z,82.72
2017-03-12T06:16:56.863Z,82.91
2017-03-12T06:17:56.896Z,82.91
2017-03-12T06:18:57.312Z,82.82
2017-03-12T06:19:56.962Z,82.95
2017-03-12T06:20:57.026Z,83.14
2017-03-12T06:21:57.015Z,83.14
2017-03-12T06:22:57.443Z,82.95
2017-03-12T06:23:57.080Z,83.52
2017-03-12T06:24:57.114Z,83.33
2017-03-12T06:25:57.523Z,82.76
2017-03-12T06:26:57.183Z,82.95
2017-03-12T06:27:57.199Z,82.67
2017-03-12T06:28:57.231Z,82.86
2017-03-12T06:29:57.263Z,82.76
2017-03-12T06:30:57.678Z,83.05
2017-03-12T06:31:57.716Z,82.95
2017-03-12T06:32:57.356Z,82.86
2017-03-12T06:33:57.387Z,82.67
2017-03-12T06:34:57.418Z,82.95
2017-03-12T06:35:57.835Z,82.95
2017-03-12T06:36:57.869Z,82.76
2017-03-12T06:37:57.524Z,83.05
2017-03-12T06:38:57.932Z,82.57
2017-03-12T06:39:57.580Z,82.39
2017-03-12T06:40:57.598Z,82.86
2017-03-12T06:41:57.639Z,82.39
2017-03-12T06:42:57.668Z,82.29
2017-03-12T06:43:57.689Z,82.1
2017-03-12T06:44:57.721Z,82.39
2017-03-12T06:45:57.755Z,82.48
2017-03-12T06:46:57.794Z,81.72
2017-03-12T06:47:57.833Z,81.72
2017-03-12T06:48:57.850Z,81.63
2017-03-12T06:49:57.877Z,81.53
2017-03-12T06:50:58.318Z,81.44
2017-03-12T06:51:58.335Z,81.72
2017-03-12T06:52:57.986Z,81.53
2017-03-12T06:53:57.998Z,81.82
2017-03-12T06:54:58.045Z,81.82
2017-03-12T06:55:58.462Z,81.44
2017-03-12T06:56:58.110Z,81.25
2017-03-12T06:57:58.123Z,81.82
2017-03-12T06:58:58.154Z,81.63
2017-03-12T06:59:58.198Z,81.63
2017-03-12T07:00:58.611Z,81.76
2017-03-12T07:01:58.267Z,81.48
2017-03-12T07:02:58.677Z,81.2
2017-03-12T07:03:58.314Z,81.01
2017-03-12T07:04:58.348Z,81.29
2017-03-12T07:05:58.768Z,81.1
2017-03-12T07:06:58.421Z,80.63
2017-03-12T07:07:58.460Z,80.91
2017-03-12T07:08:58.863Z,80.53
2017-03-12T07:09:58.895Z,80.82
2017-03-12T07:10:58.936Z,80.53
2017-03-12T07:11:58.983Z,80.25
2017-03-12T07:12:58.987Z,79.82
2017-03-12T07:13:58.626Z,80
2017-03-12T07:14:59.054Z,79.82
2017-03-12T07:15:58.695Z,79.02
2017-03-12T07:16:59.122Z,79.72
2017-03-12T07:17:58.758Z,79.44
2017-03-12T07:18:58.789Z,79.72
2017-03-12T07:19:58.819Z,79.72
2017-03-12T07:20:58.858Z,79.82
2017-03-12T07:21:58.881Z,79.25
2017-03-12T07:22:59.311Z,79.06
2017-03-12T07:23:58.949Z,79.25
2017-03-12T07:24:58.982Z,78.39
2017-03-12T07:25:59.012Z,78.96
2017-03-12T07:26:59.050Z,78.77
2017-03-12T07:27:59.076Z,78.96
2017-03-12T07:28:59.117Z,78.67
2017-03-12T07:29:59.144Z,78.62
2017-03-12T07:30:59.188Z,78.39
2017-03-12T07:31:59.211Z,78.15
2017-03-12T07:32:59.241Z,78.24
2017-03-12T07:33:59.281Z,78.34
2017-03-12T07:34:59.310Z,77.48
2017-03-12T07:35:59.344Z,77.48
2017-03-12T07:36:59.407Z,77.2
2017-03-12T07:37:59.634Z,77.39
2017-03-12T07:38:59.845Z,77.96
2017-03-12T07:39:59.873Z,77.43
2017-03-12T07:40:59.507Z,77.71
2017-03-12T07:41:59.543Z,78.19
2017-03-12T07:42:59.967Z,77.47
2017-03-12T07:43:59.616Z,76.9
2017-03-12T07:45:00.041Z,77.03
2017-03-12T07:46:00.071Z,77.12
2017-03-12T07:46:59.710Z,77.17
2017-03-12T07:47:59.751Z,76.63
2017-03-12T07:48:59.782Z,75.62
2017-03-12T07:49:59.825Z,74.29
2017-03-12T07:51:00.243Z,72.86
2017-03-12T07:51:59.920Z,72.62
2017-03-12T07:53:00.323Z,72.42
2017-03-12T07:53:59.963Z,71.95
2017-03-12T07:55:00.398Z,71.57
2017-03-12T07:56:00.439Z,70.43
2017-03-12T07:57:00.087Z,70.47
2017-03-12T07:58:00.108Z,69.99
2017-03-12T07:59:00.142Z,70.08
2017-03-12T08:00:00.228Z,69.99
2017-03-12T08:01:00.229Z,69.13
2017-03-12T08:02:00.254Z,68.37
2017-03-12T08:03:00.293Z,68.65
2017-03-12T08:04:00.328Z,68.56
2017-03-12T08:05:00.375Z,68.08
2017-03-12T08:06:00.792Z,67.8
2017-03-12T08:07:00.451Z,67.32
2017-03-12T08:08:00.467Z,67.32
2017-03-12T08:09:00.512Z,67
2017-03-12T08:10:00.544Z,66.91
2017-03-12T08:11:00.614Z,66.33
2017-03-12T08:12:00.618Z,66.78
2017-03-12T08:13:00.671Z,66.68
2017-03-12T08:14:00.698Z,66.78
2017-03-12T08:15:01.115Z,66.78
2017-03-12T08:16:01.160Z,67.07
2017-03-12T08:17:00.796Z,67.54
2017-03-12T08:18:00.842Z,67.63
2017-03-12T08:19:00.881Z,68.21
2017-03-12T08:20:00.907Z,67.29
2017-03-12T08:21:01.337Z,67.41
2017-03-12T08:22:00.991Z,66.75
2017-03-12T08:23:01.015Z,66.5
2017-03-12T08:24:01.075Z,66.4
2017-03-12T08:25:01.102Z,65.29
2017-03-12T08:26:01.144Z,65.39
2017-03-12T08:27:01.171Z,65.33
2017-03-12T08:28:01.221Z,64.56
2017-03-12T08:29:01.243Z,64.59
2017-03-12T08:30:01.291Z,65.36
2017-03-12T08:31:01.328Z,63.86
2017-03-12T08:32:01.361Z,64.37
2017-03-12T08:33:01.407Z,63.48
2017-03-12T08:34:01.441Z,61.98
2017-03-12T08:35:01.481Z,60.96
2017-03-12T08:36:01.545Z,59.84
2017-03-12T08:37:01.953Z,60.35
2017-03-12T08:38:01.602Z,58.46
2017-03-12T08:39:02.052Z,57.53
2017-03-12T08:40:01.684Z,57.46
2017-03-12T08:41:01.726Z,56.6
2017-03-12T08:42:01.766Z,56.44
2017-03-12T08:43:01.817Z,55.89
2017-03-12T08:44:02.274Z,54.83
2017-03-12T08:45:01.906Z,55.02
2017-03-12T08:46:02.332Z,53.97
2017-03-12T08:47:01.982Z,54.06
2017-03-12T08:48:02.023Z,54.16
2017-03-12T08:49:02.100Z,53.3
2017-03-12T08:50:02.520Z,53.3
2017-03-12T08:51:02.145Z,52.84
2017-03-12T08:52:02.188Z,51.5
2017-03-12T08:53:02.242Z,51.4
2017-03-12T08:54:02.286Z,49.6
2017-03-12T08:55:02.314Z,49.41
2017-03-12T08:56:02.365Z,48.95
2017-03-12T08:57:02.406Z,48.66
2017-03-12T08:58:02.453Z,47.8
2017-03-12T08:59:02.505Z,47.51
2017-03-12T09:00:02.537Z,46.09
2017-03-12T09:01:02.583Z,45.8
2017-03-12T09:02:02.623Z,44.93
2017-03-12T09:03:02.667Z,45.15
2017-03-12T09:04:02.727Z,43.41
2017-03-12T09:05:02.759Z,43.34
2017-03-12T09:06:02.812Z,43.34
2017-03-12T09:07:02.870Z,42.93
2017-03-12T09:08:02.910Z,42.84
2017-03-12T09:09:02.950Z,43.01
2017-03-12T09:10:02.996Z,43.11
2017-03-12T09:11:03.038Z,42.63
2017-03-12T09:12:03.079Z,42.72
2017-03-12T09:13:03.124Z,42.05
2017-03-12T09:14:03.560Z,40.89
2017-03-12T09:15:03.229Z,40.53
2017-03-12T09:16:03.265Z,40.24
2017-03-12T09:17:03.308Z,39.18
2017-03-12T09:18:03.350Z,39.56
2017-03-12T09:19:03.404Z,38.72
2017-03-12T09:20:03.447Z,38.91
2017-03-12T09:21:03.499Z,38.24
2017-03-12T09:22:03.537Z,38.14
2017-03-12T09:23:04.001Z,37.76
2017-03-12T09:24:03.632Z,37.74
2017-03-12T09:25:03.688Z,37.83
2017-03-12T09:26:04.122Z,37.64
2017-03-12T09:27:04.163Z,36.89
2017-03-12T09:28:03.828Z,36.51
2017-03-12T09:29:03.870Z,35.73
2017-03-12T09:30:04.308Z,34.86
2017-03-12T09:31:03.984Z,34.58
2017-03-12T09:32:04.027Z,34.48
2017-03-12T09:33:04.065Z,34.29
2017-03-12T09:34:04.106Z,33.23
2017-03-12T09:35:04.154Z,33.81
2017-03-12T09:36:04.613Z,33.42
2017-03-12T09:37:04.650Z,31.98
2017-03-12T09:38:04.312Z,31.38
2017-03-12T09:39:04.348Z,31.37
2017-03-12T09:40:04.390Z,31.46
2017-03-12T09:41:04.440Z,31.56
2017-03-12T09:42:04.893Z,31.74
2017-03-12T09:43:04.552Z,31.54
2017-03-12T09:44:04.988Z,31.74
2017-03-12T09:45:04.635Z,32.12
2017-03-12T09:46:04.677Z,32.3
2017-03-12T09:47:04.744Z,32.31
2017-03-12T09:48:04.784Z,32.31
2017-03-12T09:49:04.831Z,31.45
2017-03-12T09:50:04.883Z,30
2017-03-12T09:51:04.925Z,30
2017-03-12T09:52:04.970Z,29.81
2017-03-12T09:53:05.026Z,29.91
2017-03-12T09:54:05.073Z,29.51
2017-03-12T09:55:05.507Z,29.61
2017-03-12T09:56:05.169Z,30.38
2017-03-12T09:57:05.225Z,30.28
2017-03-12T09:58:05.261Z,30.55
2017-03-12T09:59:05.317Z,30.18
2017-03-12T10:00:05.365Z,29.97
2017-03-12T10:01:05.420Z,29.59
2017-03-12T10:02:05.474Z,29.69
2017-03-12T10:03:05.904Z,29.79
2017-03-12T10:04:05.956Z,30.17
2017-03-12T10:05:05.606Z,30.17
2017-03-12T10:06:05.660Z,30.26
2017-03-12T10:07:05.708Z,30.36
2017-03-12T10:08:05.758Z,30.17
2017-03-12T10:09:05.804Z,30.25
2017-03-12T10:10:05.858Z,30.17
2017-03-12T10:11:05.918Z,30.35
2017-03-12T10:12:06.151Z,30.35
2017-03-12T10:13:06.021Z,30.17
2017-03-12T10:14:06.065Z,29.88
2017-03-12T10:15:06.115Z,29.79
2017-03-12T10:16:06.169Z,29.49
2017-03-12T10:17:06.216Z,29.3
2017-03-12T10:18:06.250Z,28.63
2017-03-12T10:19:06.299Z,28.91
2017-03-12T10:20:06.351Z,28.99
2017-03-12T10:21:06.400Z,29.83
2017-03-12T10:22:06.452Z,30.12
2017-03-12T10:23:06.502Z,30.32
2017-03-12T10:24:06.556Z,30.22
2017-03-12T10:25:06.599Z,29.27
2017-03-12T10:26:06.660Z,28.88
2017-03-12T10:27:06.706Z,29.16
2017-03-12T10:28:06.753Z,29.45
2017-03-12T10:29:06.805Z,29.45
2017-03-12T10:30:06.855Z,29.37
2017-03-12T10:31:06.902Z,28.99
2017-03-12T10:32:06.964Z,28.89
2017-03-12T10:33:07.035Z,28.7
2017-03-12T10:34:07.055Z,28.41
2017-03-12T10:35:07.124Z,28.41
2017-03-12T10:36:07.556Z,28.12
2017-03-12T10:37:07.243Z,28.22
2017-03-12T10:38:07.268Z,28.12
2017-03-12T10:39:07.306Z,28.7
2017-03-12T10:40:07.356Z,28.7
2017-03-12T10:41:07.410Z,28.12
2017-03-12T10:42:07.456Z,28.22
2017-03-12T10:43:07.509Z,27.83
2017-03-12T10:44:07.558Z,28.2
2017-03-12T10:45:08.011Z,28.49
2017-03-12T10:46:07.656Z,28.39
2017-03-12T10:47:07.740Z,28.67
2017-03-12T10:48:07.756Z,28.48
2017-03-12T10:49:07.809Z,28.48
2017-03-12T10:50:07.861Z,28.57
2017-03-12T10:51:07.933Z,28.38
2017-03-12T10:52:07.963Z,28.94
2017-03-12T10:53:08.006Z,29.6
2017-03-12T10:54:08.063Z,29.41
2017-03-12T10:55:08.110Z,29.68
2017-03-12T10:56:08.155Z,30.33
2017-03-12T10:57:08.212Z,30.62
2017-03-12T10:58:08.254Z,30.72
2017-03-12T10:59:08.307Z,30.52
2017-03-12T11:00:08.356Z,30.73
2017-03-12T11:01:08.415Z,30.64
2017-03-12T11:02:08.450Z,30.44
2017-03-12T11:03:08.515Z,30.73
2017-03-12T11:04:08.576Z,30.44
2017-03-12T11:05:08.612Z,30.65
2017-03-12T11:06:08.653Z,29.98
2017-03-12T11:07:08.700Z,30.27
2017-03-12T11:08:09.155Z,30
2017-03-12T11:09:09.188Z,29.71
2017-03-12T11:10:08.866Z,30.09
2017-03-12T11:11:09.305Z,29.61
2017-03-12T11:12:08.952Z,29.42
2017-03-12T11:13:09.009Z,28.85
2017-03-12T11:14:09.049Z,28.08
2017-03-12T11:15:09.103Z,28.08
2017-03-12T11:16:09.369Z,27.79
2017-03-12T11:17:09.586Z,27.89
2017-03-12T11:18:09.236Z,27.89
2017-03-12T11:19:09.305Z,27.89
2017-03-12T11:20:09.725Z,27.7
2017-03-12T11:21:09.393Z,27.97
2017-03-12T11:22:09.846Z,28.16
2017-03-12T11:23:09.474Z,28.16
2017-03-12T11:24:09.537Z,27.97
2017-03-12T11:25:09.583Z,27.97
2017-03-12T11:26:09.620Z,27.97
2017-03-12T11:27:09.663Z,27.78
2017-03-12T11:28:09.714Z,27.97
2017-03-12T11:29:09.755Z,27.39
2017-03-12T11:30:09.809Z,27.01
2017-03-12T11:31:09.847Z,26.82
2017-03-12T11:32:09.915Z,27.3
2017-03-12T11:33:10.358Z,27.2
2017-03-12T11:34:09.993Z,27.97
2017-03-12T11:35:10.041Z,27.3
2017-03-12T11:36:10.093Z,26.92
2017-03-12T11:37:10.157Z,26.63
2017-03-12T11:38:10.171Z,27.01
2017-03-12T11:39:10.236Z,27.01
2017-03-12T11:40:10.282Z,26.82
2017-03-12T11:41:10.315Z,26.92
2017-03-12T11:42:10.357Z,27.3
2017-03-12T11:43:10.397Z,27.11
2017-03-12T11:44:10.447Z,26.83
2017-03-12T11:45:10.499Z,26.82
2017-03-12T11:46:10.531Z,26.82
2017-03-12T11:47:10.594Z,26.82
2017-03-12T11:48:10.617Z,26.63
2017-03-12T11:49:10.662Z,27
2017-03-12T11:50:10.721Z,26.9
2017-03-12T11:51:10.753Z,26.89
2017-03-12T11:52:10.805Z,26.51
2017-03-12T11:53:11.251Z,26.7
2017-03-12T11:54:10.886Z,26.7
2017-03-12T11:55:10.926Z,26.97
2017-03-12T11:56:11.359Z,26.79
2017-03-12T11:57:11.399Z,26.87
2017-03-12T11:58:11.045Z,26.59
2017-03-12T11:59:11.109Z,26.87
2017-03-12T12:00:11.136Z,27.16
2017-03-12T12:01:11.178Z,26.78
2017-03-12T12:02:11.217Z,27.16
2017-03-12T12:03:11.654Z,26.97
2017-03-12T12:04:11.302Z,26.78
2017-03-12T12:05:11.343Z,26.97
2017-03-12T12:06:11.380Z,27.07
2017-03-12T12:07:11.425Z,27.07
2017-03-12T12:08:11.465Z,26.87
2017-03-12T12:09:11.524Z,27.16
2017-03-12T12:10:11.546Z,26.86
2017-03-12T12:11:11.593Z,27.15
2017-03-12T12:12:11.645Z,26.96
2017-03-12T12:13:11.679Z,26.96
2017-03-12T12:14:11.714Z,27.53
2017-03-12T12:15:11.756Z,27.91
2017-03-12T12:16:11.793Z,27.82
2017-03-12T12:17:11.840Z,28.11
2017-03-12T12:18:12.284Z,29.05
2017-03-12T12:19:11.918Z,29.41
2017-03-12T12:20:11.958Z,29.78
2017-03-12T12:21:12.015Z,30.07
2017-03-12T12:22:12.440Z,30.16
2017-03-12T12:23:12.090Z,30.45
2017-03-12T12:24:12.506Z,30.55
2017-03-12T12:25:12.551Z,30.66
2017-03-12T12:26:12.213Z,30.85
2017-03-12T12:27:12.245Z,31.42
2017-03-12T12:28:12.275Z,31.79
2017-03-12T12:29:12.320Z,31.6
2017-03-12T12:30:12.354Z,32.09
2017-03-12T12:31:12.398Z,31.99
2017-03-12T12:32:12.450Z,31.98
2017-03-12T12:33:12.474Z,32.26
2017-03-12T12:34:12.519Z,32.07
2017-03-12T12:35:12.554Z,32.74
2017-03-12T12:36:12.596Z,32.84
2017-03-12T12:37:12.637Z,32.84
2017-03-12T12:38:12.680Z,33.11
2017-03-12T12:39:12.713Z,32.92
2017-03-12T12:40:12.981Z,33.2
2017-03-12T12:41:12.832Z,33.49
2017-03-12T12:42:13.262Z,33.39
2017-03-12T12:43:12.872Z,33.39
2017-03-12T12:44:12.906Z,33.97
2017-03-12T12:45:12.944Z,34.52
2017-03-12T12:46:12.987Z,34.71
2017-03-12T12:47:13.017Z,34.69
2017-03-12T12:48:13.454Z,35.64
2017-03-12T12:49:13.100Z,36.22
2017-03-12T12:50:13.144Z,36.69
2017-03-12T12:51:13.196Z,36.79
2017-03-12T12:52:13.214Z,37.17
2017-03-12T12:53:13.260Z,37.27
2017-03-12T12:54:13.298Z,37.34
2017-03-12T12:55:13.726Z,37.82
2017-03-12T12:56:13.390Z,37.92